createdAt,value
2018-03-31T00:00:16.712Z,80.12
2018-03-31T00:01:16.711Z,80.81
2018-03-31T00:02:16.715Z,80.65
2018-03-31T00:03:16.712Z,80.82
2018-03-31T00:04:16.708Z,80.58
2018-03-31T00:05:16.714Z,80.74
2018-03-31T00:06:16.716Z,79.86
2018-03-31T00:07:16.712Z,79.58
2018-03-31T00:08:16.712Z,79.96
2018-03-31T00:09:16.717Z,79.5
2018-03-31T00:10:16.704Z,79.57
2018-03-31T00:11:16.700Z,79.87
2018-03-31T00:12:16.704Z,80.32
2018-03-31T00:13:16.700Z,80.19
2018-03-31T00:14:16.698Z,81.2
2018-03-31T00:15:16.703Z,80.69
2018-03-31T00:16:23.894Z,79.9
2018-03-31T00:17:16.699Z,80.08
2018-03-31T00:18:16.697Z,80.02
2018-03-31T00:19:16.703Z,79.97
2018-03-31T00:20:16.703Z,80.09
2018-03-31T00:21:16.744Z,79.5
2018-03-31T00:22:16.711Z,79.35
2018-03-31T00:23:16.698Z,80.38
2018-03-31T00:24:16.701Z,80.18
2018-03-31T00:25:16.692Z,80.19
2018-03-31T00:26:16.719Z,80.6
2018-03-31T00:27:16.696Z,80.41
2018-03-31T00:28:16.690Z,81.16
2018-03-31T00:29:16.690Z,81.82
2018-03-31T00:30:16.690Z,81.33
2018-03-31T00:31:16.691Z,81.08
2018-03-31T00:32:16.689Z,81.13
2018-03-31T00:33:16.698Z,80.54
2018-03-31T00:34:16.702Z,80.57
2018-03-31T00:35:16.699Z,80.9
2018-03-31T00:36:16.686Z,81
2018-03-31T00:37:16.693Z,81.04
2018-03-31T00:38:16.716Z,81.2
2018-03-31T00:39:16.685Z,80.91
2018-03-31T00:40:16.683Z,80.95
2018-03-31T00:41:16.683Z,81.45
2018-03-31T00:42:16.689Z,81.34
2018-03-31T00:43:16.680Z,82.33
2018-03-31T00:44:16.685Z,81.93
2018-03-31T00:45:16.681Z,81.38
2018-03-31T00:46:16.685Z,81.21
2018-03-31T00:47:16.738Z,81.45
2018-03-31T00:48:16.686Z,81.99
2018-03-31T00:49:16.699Z,81.92
2018-03-31T00:50:16.686Z,81.52
2018-03-31T00:51:16.676Z,82.19
2018-03-31T00:52:16.683Z,81.77
2018-03-31T00:53:16.723Z,81.67
2018-03-31T00:54:16.677Z,82.23
2018-03-31T00:55:16.677Z,82.42
2018-03-31T00:56:16.678Z,82.03
2018-03-31T00:57:16.670Z,81.91
2018-03-31T00:58:16.700Z,81.52
2018-03-31T00:59:16.677Z,81.63
2018-03-31T01:00:16.676Z,81.87
2018-03-31T01:01:16.679Z,81.55
2018-03-31T01:02:16.677Z,81.32
2018-03-31T01:03:16.688Z,80.77
2018-03-31T01:04:16.687Z,81.57
2018-03-31T01:05:16.671Z,81.67
2018-03-31T01:06:16.669Z,81.08
2018-03-31T01:07:16.667Z,81
2018-03-31T01:08:16.688Z,81.93
2018-03-31T01:09:16.665Z,82.51
2018-03-31T01:10:16.671Z,81.1
2018-03-31T01:11:16.667Z,81.88
2018-03-31T01:12:16.667Z,81.61
2018-03-31T01:13:16.695Z,80.68
2018-03-31T01:14:16.671Z,82.2
2018-03-31T01:15:16.674Z,82.54
2018-03-31T01:16:16.672Z,81.8
2018-03-31T01:17:16.668Z,81.67
2018-03-31T01:18:16.714Z,81.73
2018-03-31T01:19:16.657Z,81.79
2018-03-31T01:20:16.661Z,81.58
2018-03-31T01:21:16.664Z,81.24
2018-03-31T01:22:16.661Z,81.33
2018-03-31T01:23:16.661Z,81.21
2018-03-31T01:24:16.665Z,81.53
2018-03-31T01:25:16.659Z,80.7
2018-03-31T01:26:16.658Z,81.35
2018-03-31T01:27:16.658Z,80.61
2018-03-31T01:28:16.657Z,80.76
2018-03-31T01:29:16.660Z,80.74
2018-03-31T01:30:16.672Z,80.68
2018-03-31T01:31:16.665Z,81.14
2018-03-31T01:32:16.653Z,80.68
2018-03-31T01:33:16.647Z,81.49
2018-03-31T01:34:16.648Z,81.57
2018-03-31T01:35:16.651Z,81.76
2018-03-31T01:36:16.651Z,81.1
2018-03-31T01:37:16.657Z,81.51
2018-03-31T01:38:16.649Z,81.47
2018-03-31T01:39:16.649Z,81.05
2018-03-31T01:40:16.650Z,81.23
2018-03-31T01:41:16.648Z,81.99
2018-03-31T01:42:16.654Z,81.73
2018-03-31T01:43:16.657Z,81.01
2018-03-31T01:44:16.683Z,80.67
2018-03-31T01:45:16.657Z,80.93
2018-03-31T01:46:16.646Z,80.67
2018-03-31T01:47:16.643Z,80.72
2018-03-31T01:48:16.646Z,80.95
2018-03-31T01:49:16.770Z,80.89
2018-03-31T01:50:16.646Z,81.39
2018-03-31T01:51:16.645Z,81.35
2018-03-31T01:52:16.638Z,81.9
2018-03-31T01:53:16.644Z,81.38
2018-03-31T01:54:16.665Z,81.16
2018-03-31T01:55:16.642Z,80.91
2018-03-31T01:56:16.648Z,80.52
2018-03-31T01:57:16.645Z,80.82
2018-03-31T01:58:16.641Z,81.59
2018-03-31T01:59:16.640Z,81.54
2018-03-31T02:00:16.631Z,81.65
2018-03-31T02:01:16.639Z,81.57
2018-03-31T02:02:16.635Z,81.81
2018-03-31T02:03:16.637Z,81.28
2018-03-31T02:04:16.657Z,81.42
2018-03-31T02:05:16.633Z,81.49
2018-03-31T02:06:16.630Z,81.6
2018-03-31T02:07:16.638Z,81.29
2018-03-31T02:08:16.636Z,81.32
2018-03-31T02:09:16.636Z,81.4
2018-03-31T02:10:16.641Z,81.27
2018-03-31T02:11:16.636Z,81.52
2018-03-31T02:12:16.638Z,81.48
2018-03-31T02:13:16.633Z,81.65
2018-03-31T02:14:16.627Z,81.62
2018-03-31T02:15:16.626Z,82.12
2018-03-31T02:16:16.648Z,81.54
2018-03-31T02:17:16.659Z,81.9
2018-03-31T02:18:16.624Z,81.5
2018-03-31T02:19:16.621Z,81.95
2018-03-31T02:20:16.798Z,82.29
2018-03-31T02:21:16.647Z,81.47
2018-03-31T02:22:16.633Z,81.73
2018-03-31T02:23:16.632Z,81.62
2018-03-31T02:24:16.637Z,82.09
2018-03-31T02:25:16.627Z,81.87
2018-03-31T02:26:16.618Z,81.57
2018-03-31T02:27:16.616Z,81.83
2018-03-31T02:28:16.614Z,81.51
2018-03-31T02:29:16.616Z,81.25
2018-03-31T02:30:16.615Z,82.02
2018-03-31T02:31:16.616Z,81.83
2018-03-31T02:32:16.615Z,81.33
2018-03-31T02:33:16.613Z,81.63
2018-03-31T02:34:16.616Z,81.22
2018-03-31T02:35:16.623Z,81.54
2018-03-31T02:36:16.619Z,81.87
2018-03-31T02:37:16.631Z,81.44
2018-03-31T02:38:16.629Z,81.7
2018-03-31T02:39:16.636Z,81.8
2018-03-31T02:40:16.614Z,81.49
2018-03-31T02:41:16.609Z,81.6
2018-03-31T02:42:16.611Z,81.57
2018-03-31T02:43:16.607Z,81.02
2018-03-31T02:44:16.606Z,81.85
2018-03-31T02:45:16.607Z,81.58
2018-03-31T02:46:16.631Z,82.2
2018-03-31T02:47:16.603Z,81.64
2018-03-31T02:48:16.609Z,81.28
2018-03-31T02:49:16.603Z,81.45
2018-03-31T02:50:16.609Z,81.1
2018-03-31T02:51:16.681Z,80.97
2018-03-31T02:52:16.615Z,81.36
2018-03-31T02:53:16.612Z,81.27
2018-03-31T02:54:16.603Z,80.91
2018-03-31T02:55:16.608Z,80.88
2018-03-31T02:56:16.608Z,80.62
2018-03-31T02:57:16.605Z,80.62
2018-03-31T02:58:16.599Z,80.67
2018-03-31T02:59:16.598Z,80.83
2018-03-31T03:00:16.597Z,81.64
2018-03-31T03:01:16.598Z,81.32
2018-03-31T03:02:16.604Z,81.52
2018-03-31T03:03:16.609Z,81.69
2018-03-31T03:04:16.602Z,81.75
2018-03-31T03:05:16.637Z,81.62
2018-03-31T03:06:16.614Z,81.58
2018-03-31T03:07:16.600Z,81.37
2018-03-31T03:08:16.594Z,81
2018-03-31T03:09:16.622Z,81.64
2018-03-31T03:10:16.593Z,82.05
2018-03-31T03:11:16.591Z,81.49
2018-03-31T03:12:16.636Z,81.29
2018-03-31T03:13:16.593Z,81.93
2018-03-31T03:14:16.614Z,81.46
2018-03-31T03:15:16.588Z,81.3
2018-03-31T03:16:16.589Z,81.53
2018-03-31T03:17:16.609Z,81.83
2018-03-31T03:18:16.594Z,81.24
2018-03-31T03:19:16.598Z,81.49
2018-03-31T03:20:16.589Z,81.19
2018-03-31T03:21:16.579Z,81.86
2018-03-31T03:22:16.640Z,81.52
2018-03-31T03:23:16.579Z,81.62
2018-03-31T03:24:16.602Z,81.62
2018-03-31T03:25:16.604Z,81.36
2018-03-31T03:26:16.578Z,81.38
2018-03-31T03:27:16.576Z,81.09
2018-03-31T03:28:16.586Z,80.93
2018-03-31T03:29:16.581Z,81.41
2018-03-31T03:30:16.592Z,81.44
2018-03-31T03:31:16.589Z,81.64
2018-03-31T03:32:16.593Z,81.37
2018-03-31T03:33:16.589Z,81.49
2018-03-31T03:34:16.581Z,82
2018-03-31T03:35:16.575Z,81.86
2018-03-31T03:36:16.573Z,81.14
2018-03-31T03:37:16.573Z,81.35
2018-03-31T03:38:16.593Z,82.13
2018-03-31T03:39:16.575Z,81.95
2018-03-31T03:40:16.574Z,82.04
2018-03-31T03:41:16.568Z,81.35
2018-03-31T03:42:16.575Z,81.32
2018-03-31T03:43:16.579Z,80.95
2018-03-31T03:44:16.571Z,80.96
2018-03-31T03:45:16.570Z,80.91
2018-03-31T03:46:16.579Z,81.83
2018-03-31T03:47:16.569Z,81.54
2018-03-31T03:48:16.591Z,81.42
2018-03-31T03:49:16.570Z,81.03
2018-03-31T03:50:16.563Z,81.47
2018-03-31T03:51:16.572Z,81.21
2018-03-31T03:52:16.805Z,80.96
2018-03-31T03:53:16.620Z,80.8
2018-03-31T03:54:16.563Z,80.71
2018-03-31T03:55:16.583Z,80.7
2018-03-31T03:56:16.564Z,81.56
2018-03-31T03:57:16.598Z,81.91
2018-03-31T03:58:16.562Z,81.76
2018-03-31T03:59:16.575Z,81.96
2018-03-31T04:00:16.572Z,82.04
2018-03-31T04:01:16.562Z,81.85
2018-03-31T04:02:16.602Z,81.57
2018-03-31T04:03:16.558Z,81.14
2018-03-31T04:04:16.560Z,80.95
2018-03-31T04:05:16.561Z,80.94
2018-03-31T04:06:16.556Z,81.39
2018-03-31T04:07:16.579Z,81.44
2018-03-31T04:08:16.556Z,80.75
2018-03-31T04:09:16.554Z,80.82
2018-03-31T04:10:16.562Z,81.24
2018-03-31T04:11:16.561Z,81.08
2018-03-31T04:12:16.557Z,81.08
2018-03-31T04:13:16.564Z,81.3
2018-03-31T04:14:16.568Z,81.23
2018-03-31T04:15:16.555Z,81.53
2018-03-31T04:16:16.563Z,82.27
2018-03-31T04:17:16.554Z,82.35
2018-03-31T04:18:16.555Z,82.12
2018-03-31T04:19:16.551Z,81.81
2018-03-31T04:20:16.551Z,82.06
2018-03-31T04:21:16.552Z,82.31
2018-03-31T04:22:16.548Z,82.31
2018-03-31T04:23:16.548Z,82.14
2018-03-31T04:24:16.657Z,82.17
2018-03-31T04:25:16.556Z,82.35
2018-03-31T04:26:16.560Z,82.59
2018-03-31T04:27:16.558Z,82.61
2018-03-31T04:28:16.557Z,82.63
2018-03-31T04:29:16.553Z,82.3
2018-03-31T04:30:16.560Z,82.35
2018-03-31T04:31:16.540Z,81.97
2018-03-31T04:32:16.544Z,81.63
2018-03-31T04:33:16.575Z,81.39
2018-03-31T04:34:16.544Z,81.47
2018-03-31T04:35:16.543Z,81.39
2018-03-31T04:36:16.540Z,81.49
2018-03-31T04:37:16.545Z,81.98
2018-03-31T04:38:16.548Z,81.73
2018-03-31T04:39:16.553Z,81.83
2018-03-31T04:40:16.572Z,81.45
2018-03-31T04:41:16.549Z,81.39
2018-03-31T04:42:16.534Z,82.07
2018-03-31T04:43:16.547Z,82.57
2018-03-31T04:44:16.534Z,82.61
2018-03-31T04:45:16.557Z,82.5
2018-03-31T04:46:16.545Z,82.18
2018-03-31T04:47:16.537Z,81.96
2018-03-31T04:48:16.529Z,82.55
2018-03-31T04:49:16.529Z,82.49
2018-03-31T04:50:16.895Z,82.18
2018-03-31T04:51:16.548Z,82.33
2018-03-31T04:52:16.540Z,81.93
2018-03-31T04:53:16.529Z,82.03
2018-03-31T04:54:16.532Z,81.75
2018-03-31T04:55:16.623Z,81.76
2018-03-31T04:56:16.526Z,81.87
2018-03-31T04:57:16.535Z,82.37
2018-03-31T04:58:16.546Z,82.55
2018-03-31T04:59:16.522Z,82.31
2018-03-31T05:00:16.571Z,82.43
2018-03-31T05:01:16.523Z,82.39
2018-03-31T05:02:16.633Z,82.65
2018-03-31T05:03:16.525Z,82.11
2018-03-31T05:04:16.545Z,82.02
2018-03-31T05:05:16.528Z,82.52
2018-03-31T05:06:16.526Z,82.9
2018-03-31T05:07:16.910Z,82.83
2018-03-31T05:08:16.519Z,82.92
2018-03-31T05:09:16.517Z,82.62
2018-03-31T05:10:16.517Z,82.2
2018-03-31T05:11:16.529Z,81.92
2018-03-31T05:12:16.539Z,81.94
2018-03-31T05:13:16.522Z,82.65
2018-03-31T05:14:16.529Z,82.64
2018-03-31T05:15:16.514Z,82.27
2018-03-31T05:16:16.509Z,82.33
2018-03-31T05:17:16.516Z,82.13
2018-03-31T05:18:16.551Z,81.98
2018-03-31T05:19:16.517Z,82.07
2018-03-31T05:20:16.523Z,81.93
2018-03-31T05:21:16.511Z,82.39
2018-03-31T05:22:16.517Z,82.43
2018-03-31T05:23:16.586Z,82.4
2018-03-31T05:24:16.523Z,82.12
2018-03-31T05:25:16.506Z,81.96
2018-03-31T05:26:16.571Z,82.26
2018-03-31T05:27:16.503Z,82
2018-03-31T05:28:16.499Z,81.81
2018-03-31T05:29:16.519Z,81.69
2018-03-31T05:30:16.503Z,81.86
2018-03-31T05:31:16.505Z,82.06
2018-03-31T05:32:16.510Z,81.8
2018-03-31T05:33:16.503Z,82.64
2018-03-31T05:34:16.507Z,82.41
2018-03-31T05:35:16.509Z,83.04
2018-03-31T05:36:16.498Z,82.74
2018-03-31T05:37:16.501Z,82.64
2018-03-31T05:38:16.502Z,82.77
2018-03-31T05:39:16.496Z,83.23
2018-03-31T05:40:16.494Z,82.98
2018-03-31T05:41:16.500Z,83.05
2018-03-31T05:42:16.516Z,83.18
2018-03-31T05:43:16.497Z,83.36
2018-03-31T05:44:16.503Z,83.22
2018-03-31T05:45:16.504Z,83.08
2018-03-31T05:46:16.515Z,83.02
2018-03-31T05:47:16.504Z,82.41
2018-03-31T05:48:16.493Z,83.08
2018-03-31T05:49:16.527Z,83.04
2018-03-31T05:50:16.490Z,84.1
2018-03-31T05:51:16.509Z,83.51
2018-03-31T05:52:16.509Z,83.24
2018-03-31T05:53:16.499Z,83.4
2018-03-31T05:54:16.503Z,83.49
2018-03-31T05:55:16.510Z,83.15
2018-03-31T05:56:16.491Z,83.62
2018-03-31T05:57:16.610Z,83.77
2018-03-31T05:58:16.490Z,84.27
2018-03-31T05:59:16.485Z,84.7
2018-03-31T06:00:16.493Z,84.94
2018-03-31T06:01:16.484Z,85.04
2018-03-31T06:02:16.485Z,85.01
2018-03-31T06:03:16.492Z,85.14
2018-03-31T06:04:16.480Z,84.39
2018-03-31T06:05:16.487Z,84.97
2018-03-31T06:06:16.481Z,84.42
2018-03-31T06:07:16.482Z,84.61
2018-03-31T06:08:16.478Z,84.19
2018-03-31T06:09:16.480Z,84.06
2018-03-31T06:10:16.480Z,84.73
2018-03-31T06:11:16.501Z,84.85
2018-03-31T06:12:16.482Z,84.91
2018-03-31T06:13:16.490Z,85.07
2018-03-31T06:14:16.481Z,84.67
2018-03-31T06:15:16.477Z,84.91
2018-03-31T06:16:16.479Z,84.51
2018-03-31T06:17:16.484Z,84.82
2018-03-31T06:18:16.476Z,84.99
2018-03-31T06:19:16.495Z,84.6
2018-03-31T06:20:16.501Z,84.45
2018-03-31T06:21:16.469Z,84.76
2018-03-31T06:22:16.469Z,84.9
2018-03-31T06:23:16.472Z,84.59
2018-03-31T06:24:16.470Z,84.19
2018-03-31T06:25:16.474Z,84.3
2018-03-31T06:26:16.475Z,85.02
2018-03-31T06:27:16.471Z,84.4
2018-03-31T06:28:16.515Z,84.09
2018-03-31T06:29:16.472Z,83.46
2018-03-31T06:30:16.468Z,84
2018-03-31T06:31:16.470Z,84.28
2018-03-31T06:32:16.464Z,84.14
2018-03-31T06:33:16.472Z,84.21
2018-03-31T06:34:16.466Z,83.98
2018-03-31T06:35:16.464Z,83.65
2018-03-31T06:36:16.462Z,83.53
2018-03-31T06:37:16.462Z,83.37
2018-03-31T06:38:16.461Z,83.92
2018-03-31T06:39:16.469Z,83.46
2018-03-31T06:40:16.462Z,83.29
2018-03-31T06:41:16.466Z,82.98
2018-03-31T06:42:16.482Z,83.46
2018-03-31T06:43:16.466Z,83.53
2018-03-31T06:44:16.464Z,83.4
2018-03-31T06:45:16.464Z,83.48
2018-03-31T06:46:16.462Z,83.04
2018-03-31T06:47:16.464Z,83.54
2018-03-31T06:48:16.455Z,83.38
2018-03-31T06:49:16.455Z,82.89
2018-03-31T06:50:16.476Z,83.46
2018-03-31T06:51:16.470Z,83.19
2018-03-31T06:52:16.460Z,83.62
2018-03-31T06:53:16.457Z,82.97
2018-03-31T06:54:16.453Z,83.37
2018-03-31T06:55:16.460Z,83.76
2018-03-31T06:56:16.456Z,83.37
2018-03-31T06:57:16.453Z,83.96
2018-03-31T06:58:16.493Z,83.28
2018-03-31T06:59:16.531Z,82.88
2018-03-31T07:00:16.452Z,82.84
2018-03-31T07:01:16.446Z,82.99
2018-03-31T07:02:16.445Z,82.76
2018-03-31T07:03:16.448Z,82.53
2018-03-31T07:04:16.445Z,82.15
2018-03-31T07:05:16.447Z,82.07
2018-03-31T07:06:16.565Z,82.43
2018-03-31T07:07:16.447Z,82.77
2018-03-31T07:08:16.451Z,82.66
2018-03-31T07:09:16.461Z,82.29
2018-03-31T07:10:16.442Z,82.22
2018-03-31T07:11:16.475Z,82.04
2018-03-31T07:12:16.450Z,81.56
2018-03-31T07:13:16.453Z,81.45
2018-03-31T07:14:16.451Z,81.58
2018-03-31T07:15:16.438Z,81.47
2018-03-31T07:16:16.438Z,81.59
2018-03-31T07:17:16.443Z,81.71
2018-03-31T07:18:16.435Z,81.34
2018-03-31T07:19:16.439Z,81.74
2018-03-31T07:20:16.442Z,81.83
2018-03-31T07:21:16.445Z,81.7
2018-03-31T07:22:16.455Z,81.8
2018-03-31T07:23:16.439Z,81.69
2018-03-31T07:24:16.441Z,81.55
2018-03-31T07:27:20.459Z,81.72
2018-03-31T07:28:16.443Z,81.62
2018-03-31T07:29:16.451Z,80.9
2018-03-31T07:30:16.524Z,80.48
2018-03-31T07:31:16.446Z,79.6
2018-03-31T07:32:16.435Z,79.43
2018-03-31T07:33:16.436Z,79.39
2018-03-31T07:34:16.436Z,78.94
2018-03-31T07:35:16.438Z,78.88
2018-03-31T07:36:16.460Z,79.23
2018-03-31T07:37:16.431Z,79.25
2018-03-31T07:38:16.432Z,79.53
2018-03-31T07:39:16.432Z,79.52
2018-03-31T07:40:16.439Z,79.94
2018-03-31T07:41:16.443Z,79.61
2018-03-31T07:42:16.433Z,79.84
2018-03-31T07:43:16.434Z,79.62
2018-03-31T07:44:16.429Z,79.19
2018-03-31T07:45:16.498Z,78.99
2018-03-31T07:46:16.427Z,78.42
2018-03-31T07:47:16.428Z,78.47
2018-03-31T07:48:16.437Z,78.77
2018-03-31T07:49:16.425Z,78.09
2018-03-31T07:50:16.423Z,77.17
2018-03-31T07:51:16.422Z,77
2018-03-31T07:52:16.461Z,77.49
2018-03-31T07:53:16.429Z,77.24
2018-03-31T07:54:16.434Z,77.03
2018-03-31T07:55:16.430Z,77.13
2018-03-31T07:56:16.426Z,76.07
2018-03-31T07:57:16.429Z,76.02
2018-03-31T07:58:16.419Z,76.26
2018-03-31T07:59:16.419Z,75.84
2018-03-31T08:00:16.424Z,76.09
2018-03-31T08:01:17.482Z,75.96
2018-03-31T08:02:16.521Z,74.73
2018-03-31T08:03:16.430Z,75.35
2018-03-31T08:04:16.416Z,75.67
2018-03-31T08:05:16.415Z,76
2018-03-31T08:06:16.416Z,75.99
2018-03-31T08:07:16.435Z,76.01
2018-03-31T08:08:16.419Z,75.03
2018-03-31T08:09:16.415Z,75.11
2018-03-31T08:10:16.419Z,74.75
2018-03-31T08:11:16.416Z,74.65
2018-03-31T08:12:16.410Z,74.88
2018-03-31T08:13:16.416Z,74.87
2018-03-31T08:14:16.430Z,74.44
2018-03-31T08:15:16.421Z,72.94
2018-03-31T08:16:16.419Z,72.97
2018-03-31T08:17:16.406Z,73.25
2018-03-31T08:18:16.404Z,73.51
2018-03-31T08:19:16.409Z,73.4
2018-03-31T08:20:16.411Z,71.97
2018-03-31T08:21:16.412Z,71.13
2018-03-31T08:22:16.427Z,70.89
2018-03-31T08:23:16.410Z,71.47
2018-03-31T08:24:16.412Z,69.99
2018-03-31T08:25:16.404Z,69.97
2018-03-31T08:26:16.402Z,70.97
2018-03-31T08:27:16.406Z,71.32
2018-03-31T08:28:16.405Z,70.43
2018-03-31T08:29:16.401Z,68.51
2018-03-31T08:30:16.414Z,68.59
2018-03-31T08:31:16.418Z,67.91
2018-03-31T08:32:16.394Z,67.45
2018-03-31T08:33:16.661Z,67.27
2018-03-31T08:34:16.403Z,68.5
2018-03-31T08:35:18.045Z,69.16
2018-03-31T08:36:16.405Z,69.47
2018-03-31T08:37:16.396Z,69.59
2018-03-31T08:38:16.400Z,69.88
2018-03-31T08:39:16.392Z,69.4
2018-03-31T08:40:16.586Z,69.29
2018-03-31T08:41:16.999Z,69.84
2018-03-31T08:42:16.388Z,69.45
2018-03-31T08:43:16.395Z,69.36
2018-03-31T08:44:16.419Z,69.25
2018-03-31T08:45:16.395Z,69.16
2018-03-31T08:46:16.387Z,69.38
2018-03-31T08:47:16.484Z,68.74
2018-03-31T08:48:16.399Z,67.86
2018-03-31T08:49:16.385Z,68.4
2018-03-31T08:50:16.384Z,68.58
2018-03-31T08:51:16.427Z,67.49
2018-03-31T08:52:16.410Z,67.87
2018-03-31T08:53:16.389Z,67.68
2018-03-31T08:54:16.388Z,67.3
2018-03-31T08:55:16.388Z,67.31
2018-03-31T08:56:16.405Z,67.28
2018-03-31T08:57:16.393Z,67.02
2018-03-31T08:58:16.378Z,67.16
2018-03-31T08:59:16.384Z,67.27
2018-03-31T09:00:17.466Z,67.62
2018-03-31T09:01:16.405Z,67.49
2018-03-31T09:02:16.377Z,67.83
2018-03-31T09:03:16.379Z,68.9
2018-03-31T09:04:17.094Z,67.12
2018-03-31T09:05:16.521Z,67.85
2018-03-31T09:06:16.674Z,67.27
2018-03-31T09:07:16.372Z,66.52
2018-03-31T09:08:16.381Z,65.17
2018-03-31T09:09:16.443Z,65.37
2018-03-31T09:10:16.379Z,65.57
2018-03-31T09:11:16.397Z,66.11
2018-03-31T09:12:16.372Z,66.09
2018-03-31T09:13:16.370Z,67.12
2018-03-31T09:14:16.371Z,66.28
2018-03-31T09:15:16.439Z,66.48
2018-03-31T09:16:16.384Z,66.01
2018-03-31T09:17:16.369Z,64.85
2018-03-31T09:18:16.371Z,65.23
2018-03-31T09:19:16.377Z,65.12
2018-03-31T09:20:16.370Z,63.99
2018-03-31T09:21:16.369Z,64.27
2018-03-31T09:22:16.373Z,64.8
2018-03-31T09:23:16.386Z,65.2
2018-03-31T09:24:16.377Z,64.75
2018-03-31T09:25:16.368Z,64.78
2018-03-31T09:26:16.391Z,65.35
2018-03-31T09:27:16.441Z,65.45
2018-03-31T09:28:16.459Z,65.38
2018-03-31T09:29:16.364Z,65.33
2018-03-31T09:30:16.400Z,64.04
2018-03-31T09:31:16.370Z,63.55
2018-03-31T09:32:16.363Z,63.68
2018-03-31T09:33:16.368Z,62.21
2018-03-31T09:34:16.358Z,62.32
2018-03-31T09:35:16.416Z,65.08
2018-03-31T09:36:16.361Z,65.45
2018-03-31T09:37:16.361Z,65.65
2018-03-31T09:38:16.387Z,66.07
2018-03-31T09:39:16.353Z,66.26
2018-03-31T09:40:16.361Z,66.42
2018-03-31T09:41:16.351Z,65.75
2018-03-31T09:42:16.361Z,64.18
2018-03-31T09:43:16.377Z,63.17
2018-03-31T09:44:16.359Z,61.89
2018-03-31T09:45:16.363Z,61.75
2018-03-31T09:46:16.361Z,62.48
2018-03-31T09:47:16.365Z,62.76
2018-03-31T09:48:16.354Z,62.49
2018-03-31T09:49:16.362Z,63.1
2018-03-31T09:50:16.349Z,63.42
2018-03-31T09:51:16.594Z,63.42
2018-03-31T09:52:16.348Z,63.49
2018-03-31T09:53:16.347Z,63.38
2018-03-31T09:54:16.390Z,64.17
2018-03-31T09:55:16.351Z,63.69
2018-03-31T09:56:16.350Z,63.48
2018-03-31T09:57:16.354Z,63.03
2018-03-31T09:58:16.350Z,63.94
2018-03-31T09:59:16.355Z,63.52
2018-03-31T10:00:16.347Z,63.38
2018-03-31T10:01:16.345Z,62.05
2018-03-31T10:02:16.348Z,61.91
2018-03-31T10:03:16.340Z,61.39
2018-03-31T10:04:16.347Z,62.3
2018-03-31T10:05:16.351Z,61.69
2018-03-31T10:06:16.406Z,62.35
2018-03-31T10:07:16.344Z,62.7
2018-03-31T10:08:16.340Z,62.7
2018-03-31T10:09:16.339Z,61.79
2018-03-31T10:10:16.340Z,60.75
2018-03-31T10:11:16.340Z,61.04
2018-03-31T10:12:16.348Z,60.67
2018-03-31T10:13:16.346Z,61.39
2018-03-31T10:14:16.344Z,61.21
2018-03-31T10:15:16.344Z,60.4
2018-03-31T10:16:16.340Z,60.38
2018-03-31T10:17:16.343Z,60.68
2018-03-31T10:18:16.378Z,61.11
2018-03-31T10:19:16.348Z,61.18
2018-03-31T10:20:16.339Z,61.94
2018-03-31T10:21:16.334Z,61.36
2018-03-31T10:22:16.428Z,60.88
2018-03-31T10:23:16.353Z,60.12
2018-03-31T10:24:16.335Z,60.24
2018-03-31T10:25:16.350Z,58.49
2018-03-31T10:26:16.334Z,58.9
2018-03-31T10:27:16.329Z,58.65
2018-03-31T10:28:16.348Z,59.61
2018-03-31T10:29:16.384Z,60.06
2018-03-31T10:30:16.332Z,58.82
2018-03-31T10:31:16.328Z,58.07
2018-03-31T10:32:16.323Z,58.62
2018-03-31T10:33:16.452Z,58.58
2018-03-31T10:34:16.322Z,56.75
2018-03-31T10:35:16.389Z,56.67
2018-03-31T10:36:16.329Z,56.29
2018-03-31T10:37:16.375Z,55.45
2018-03-31T10:38:16.344Z,56.26
2018-03-31T10:39:16.324Z,55.42
2018-03-31T10:40:16.327Z,56.19
2018-03-31T10:41:16.333Z,56.02
2018-03-31T10:42:16.326Z,56.63
2018-03-31T10:43:16.351Z,56.07
2018-03-31T10:44:16.320Z,54.57
2018-03-31T10:45:16.323Z,54.43
2018-03-31T10:46:16.323Z,54.79
2018-03-31T10:47:16.349Z,53.8
2018-03-31T10:48:16.316Z,53.25
2018-03-31T10:49:16.323Z,53.61
2018-03-31T10:50:16.323Z,53.41
2018-03-31T10:51:16.320Z,54.36
2018-03-31T10:52:16.333Z,54.18
2018-03-31T10:53:16.320Z,54.34
2018-03-31T10:54:16.318Z,54.21
2018-03-31T10:55:16.314Z,54.38
2018-03-31T10:56:16.342Z,53.38
2018-03-31T10:57:16.324Z,52.93
2018-03-31T10:58:16.337Z,52.81
2018-03-31T10:59:16.321Z,52.92
2018-03-31T11:00:16.345Z,53.38
2018-03-31T11:01:16.308Z,52.32
2018-03-31T11:02:16.321Z,53.44
2018-03-31T11:03:16.332Z,52.13
2018-03-31T11:04:16.311Z,52.33
2018-03-31T11:05:16.314Z,51.85
2018-03-31T11:06:16.319Z,52.51
2018-03-31T11:07:16.312Z,52.81
2018-03-31T11:08:16.402Z,52.96
2018-03-31T11:09:16.308Z,52.96
2018-03-31T11:10:16.336Z,52.81
2018-03-31T11:11:16.304Z,53.03
2018-03-31T11:12:16.307Z,53.08
2018-03-31T11:13:16.299Z,53.3
2018-03-31T11:14:16.306Z,53.66
2018-03-31T11:15:16.307Z,52.78
2018-03-31T11:16:16.301Z,53.17
2018-03-31T11:17:16.360Z,52.68
2018-03-31T11:18:16.304Z,52.67
2018-03-31T11:19:16.301Z,51.6
2018-03-31T11:20:16.304Z,50.64
2018-03-31T11:21:16.305Z,51.32
2018-03-31T11:22:16.318Z,50.86
2018-03-31T11:23:16.301Z,50.82
2018-03-31T11:24:16.302Z,51.09
2018-03-31T11:25:16.298Z,50.04
2018-03-31T11:26:16.302Z,50.77
2018-03-31T11:27:16.314Z,50.84
2018-03-31T11:28:16.295Z,51.15
2018-03-31T11:29:16.293Z,51.28
2018-03-31T11:30:16.293Z,52.39
2018-03-31T11:31:16.300Z,51.55
2018-03-31T11:32:16.303Z,51.04
2018-03-31T11:33:16.298Z,51.76
2018-03-31T11:34:16.294Z,51.22
2018-03-31T11:35:16.291Z,51.06
2018-03-31T11:36:16.345Z,51.67
2018-03-31T11:37:16.294Z,50.68
2018-03-31T11:38:16.314Z,51.35
2018-03-31T11:39:16.345Z,51.23
2018-03-31T11:40:16.326Z,50.79
2018-03-31T11:41:16.320Z,50.74
2018-03-31T11:42:16.343Z,50.72
2018-03-31T11:43:16.284Z,50.01
2018-03-31T11:44:16.287Z,50.46
2018-03-31T11:45:16.288Z,50.74
2018-03-31T11:46:16.281Z,51.35
2018-03-31T11:47:16.287Z,51.26
2018-03-31T11:48:16.282Z,50.99
2018-03-31T11:49:16.288Z,49.89
2018-03-31T11:50:16.286Z,49.87
2018-03-31T11:51:16.286Z,50.43
2018-03-31T11:52:16.287Z,51.13
2018-03-31T11:53:16.282Z,52.3
2018-03-31T11:54:16.280Z,48.48
2018-03-31T11:55:16.279Z,49.35
2018-03-31T11:56:16.277Z,48.04
2018-03-31T11:57:16.279Z,48.67
2018-03-31T11:58:16.275Z,48.47
2018-03-31T11:59:16.300Z,48.94
2018-03-31T12:00:16.283Z,48.5
2018-03-31T12:01:16.296Z,48.41
2018-03-31T12:02:16.324Z,48.93
2018-03-31T12:03:16.278Z,48.79
2018-03-31T12:04:16.302Z,48.75
2018-03-31T12:05:16.286Z,48.82
2018-03-31T12:06:16.280Z,47.53
2018-03-31T12:07:16.282Z,47.51
2018-03-31T12:08:16.271Z,48.04
2018-03-31T12:09:16.280Z,47.41
2018-03-31T12:10:16.355Z,46.5
2018-03-31T12:11:16.272Z,46.3
2018-03-31T12:12:16.290Z,46.87
2018-03-31T12:13:16.281Z,47.36
2018-03-31T12:14:16.274Z,46.56
2018-03-31T12:15:16.274Z,45.86
2018-03-31T12:16:16.272Z,45.41
2018-03-31T12:17:16.272Z,45.91
2018-03-31T12:18:16.275Z,45.49
2018-03-31T12:19:16.283Z,45.16
2018-03-31T12:20:16.279Z,44.5
2018-03-31T12:21:16.282Z,45.31
2018-03-31T12:22:16.270Z,44.73
2018-03-31T12:23:16.312Z,45.37
2018-03-31T12:24:16.291Z,45.33
2018-03-31T12:25:16.263Z,44.63
2018-03-31T12:26:16.264Z,43.35
2018-03-31T12:27:16.269Z,44.17
2018-03-31T12:28:16.263Z,45.34
2018-03-31T12:29:16.265Z,44.46
2018-03-31T12:30:16.265Z,44.71
2018-03-31T12:31:16.282Z,44.02
2018-03-31T12:32:16.267Z,43.29
2018-03-31T12:33:16.265Z,42.35
2018-03-31T12:34:16.267Z,42.09
2018-03-31T12:35:16.265Z,42.2
2018-03-31T12:36:16.262Z,41.74
2018-03-31T12:37:16.258Z,42.27
2018-03-31T12:38:16.259Z,42.57
2018-03-31T12:39:16.256Z,42.86
2018-03-31T12:40:16.257Z,43.31
2018-03-31T12:41:16.526Z,43.65
2018-03-31T12:42:16.257Z,43.71
2018-03-31T12:43:16.265Z,43.65
2018-03-31T12:44:16.254Z,42.9
2018-03-31T12:45:16.264Z,43.73
2018-03-31T12:46:16.280Z,42.09
2018-03-31T12:47:16.258Z,41.94
2018-03-31T12:48:16.247Z,42.21
2018-03-31T12:49:16.251Z,42.61
2018-03-31T12:50:16.262Z,42.44
2018-03-31T12:51:16.249Z,41.67
2018-03-31T12:52:16.258Z,42.15
2018-03-31T12:53:16.246Z,42.89
2018-03-31T12:54:16.251Z,42.47
2018-03-31T12:55:16.248Z,42.63
2018-03-31T12:56:16.248Z,42.76
2018-03-31T12:57:16.277Z,42.76